Time;durP1;ratioP1;P1;durP2;ratioP2;P2;SDS_P1;SDS_P2;PMS_P1;PMS_P2;Temp;Humidity;BMP_temperature;BMP_pressure;BME280_temperature;BME280_humidity;BME280_pressure;Samples;Min_cycle;Max_cycle;Signal;HPM_P1;HPM_P2
2023/12/26 00:01:06;;;;;;;24.70;15.45;;;230.50;2252.80;;;;;;5082156;28;20021;-58
2023/12/26 00:03:32;;;;;;;23.90;14.18;;;230.50;2252.80;;;;;;5070905;28;20032;-65
2023/12/26 00:05:58;;;;;;;27.30;15.80;;;205.60;2252.80;;;;;;5076748;28;20035;-58
2023/12/26 00:08:24;;;;;;;29.73;14.82;;;205.60;2252.80;;;;;;5075973;28;20032;-59
2023/12/26 00:10:49;;;;;;;26.15;14.07;;;205.60;2252.80;;;;;;5072406;28;20025;-59
2023/12/26 00:13:15;;;;;;;18.80;11.65;;;205.50;2252.80;;;;;;5081508;28;20457;-59
2023/12/26 00:15:41;;;;;;;24.27;13.23;;;205.60;2252.80;;;;;;5086087;28;20115;-59
2023/12/26 00:18:07;;;;;;;23.75;12.05;;;205.60;2252.80;;;;;;5085037;28;20025;-58
2023/12/26 00:20:33;;;;;;;24.10;12.38;;;205.60;2252.80;;;;;;5082068;28;20412;-59
2023/12/26 00:22:58;;;;;;;79.38;44.30;;;205.60;2252.80;;;;;;5083443;28;20047;-58
2023/12/26 00:25:24;;;;;;;57.28;32.45;;;205.70;2252.80;;;;;;5078724;28;20466;-59
2023/12/26 00:27:50;;;;;;;33.25;17.27;;;230.40;2252.80;;;;;;5077989;28;20469;-59
2023/12/26 00:30:16;;;;;;;34.40;20.73;;;230.50;2252.80;;;;;;5081935;28;20424;-72
2023/12/26 00:32:41;;;;;;;24.58;13.10;;;230.40;2252.80;;;;;;5088603;28;20421;-59
2023/12/26 00:35:07;;;;;;;28.90;17.70;;;230.40;2252.80;;;;;;5089561;28;20042;-60
2023/12/26 00:37:33;;;;;;;21.10;11.65;;;230.50;2252.80;;;;;;5075457;28;20031;-59
2023/12/26 00:39:59;;;;;;;20.92;12.23;;;230.60;2252.80;;;;;;5074994;28;20052;-60
2023/12/26 00:42:24;;;;;;;19.90;11.77;;;230.60;2252.80;;;;;;5078480;28;20099;-61
2023/12/26 00:44:50;;;;;;;16.05;9.32;;;230.50;2252.80;;;;;;5075041;28;20458;-59
2023/12/26 00:47:16;;;;;;;17.88;12.82;;;230.40;2252.80;;;;;;5077592;28;20025;-71
2023/12/26 00:49:42;;;;;;;16.52;11.93;;;230.40;2252.80;;;;;;5073594;28;20043;-59
2023/12/26 00:52:08;;;;;;;17.63;11.07;;;230.50;2252.80;;;;;;5076129;28;20012;-59
2023/12/26 00:54:36;;;;;;;20.83;10.57;;;230.40;2252.80;;;;;;5073930;28;20039;-58
2023/12/26 00:57:02;;;;;;;13.73;9.13;;;230.40;2252.80;;;;;;5066619;28;20041;-69
2023/12/26 00:59:28;;;;;;;16.63;10.05;;;230.40;2252.80;;;;;;5071091;28;20048;-57
2023/12/26 01:01:54;;;;;;;22.83;11.27;;;230.50;2252.80;;;;;;5071943;28;20056;-67
2023/12/26 01:04:22;;;;;;;24.05;12.30;;;230.50;2252.80;;;;;;5071784;28;20024;-69
2023/12/26 01:06:48;;;;;;;21.90;11.55;;;230.60;2252.80;;;;;;5071893;28;20037;-59
2023/12/26 01:09:13;;;;;;;15.55;8.93;;;230.60;2252.80;;;;;;5071971;28;20485;-60
2023/12/26 01:11:39;;;;;;;16.30;8.88;;;230.50;2252.80;;;;;;5071382;28;20544;-58
2023/12/26 01:14:05;;;;;;;20.23;10.40;;;230.40;2252.80;;;;;;5071910;28;20021;-59
2023/12/26 01:16:31;;;;;;;17.45;9.63;;;205.70;2252.80;;;;;;5071365;28;20462;-59
2023/12/26 01:18:56;;;;;;;18.52;9.82;;;205.70;2252.80;;;;;;5071546;28;20063;-70
2023/12/26 01:21:22;;;;;;;17.48;10.95;;;205.70;2252.80;;;;;;5070796;28;20033;-59
2023/12/26 01:23:48;;;;;;;17.58;10.45;;;205.70;2252.80;;;;;;5071112;28;20021;-59
2023/12/26 01:26:15;;;;;;;21.48;11.32;;;230.40;2252.80;;;;;;5071452;28;20410;-59
2023/12/26 01:28:41;;;;;;;23.02;11.73;;;205.70;2252.80;;;;;;5070866;28;20028;-59
2023/12/26 01:31:06;;;;;;;19.98;11.68;;;205.70;2252.80;;;;;;5071425;28;20085;-59
2023/12/26 01:33:32;;;;;;;19.80;9.57;;;205.60;2252.80;;;;;;5070987;28;20048;-58
2023/12/26 01:35:58;;;;;;;29.92;15.23;;;205.60;2252.80;;;;;;5071253;28;20072;-59
2023/12/26 01:38:24;;;;;;;21.75;13.40;;;205.60;2252.80;;;;;;5071084;28;20041;-65
2023/12/26 01:40:50;;;;;;;19.85;11.88;;;205.60;2252.80;;;;;;5071009;28;20029;-59
2023/12/26 01:43:16;;;;;;;25.40;14.65;;;205.60;2252.80;;;;;;5071132;28;20075;-59
2023/12/26 01:45:41;;;;;;;18.88;10.63;;;205.60;2252.80;;;;;;5071029;28;20024;-64
2023/12/26 01:48:09;;;;;;;17.55;10.73;;;205.60;2252.80;;;;;;5071188;28;20024;-58
2023/12/26 01:50:35;;;;;;;20.33;12.38;;;205.50;2252.80;;;;;;5071124;28;20017;-66
2023/12/26 01:53:02;;;;;;;21.88;13.05;;;205.40;2252.80;;;;;;5070779;28;20097;-57
2023/12/26 01:55:28;;;;;;;17.75;10.90;;;205.40;2252.80;;;;;;5071043;28;20048;-58
2023/12/26 01:57:56;;;;;;;18.98;10.52;;;205.30;2252.80;;;;;;5070684;28;20107;-58
2023/12/26 02:00:21;;;;;;;20.73;11.32;;;205.40;2252.80;;;;;;5070968;28;20036;-58
2023/12/26 02:02:51;;;;;;;17.75;10.38;;;205.40;2252.80;;;;;;5070488;28;20020;-63
2023/12/26 02:05:17;;;;;;;15.27;9.63;;;205.40;2252.80;;;;;;5070630;28;20028;-58
2023/12/26 02:07:43;;;;;;;17.08;9.45;;;205.30;2252.80;;;;;;5070481;28;20102;-59
2023/12/26 02:10:08;;;;;;;17.10;10.25;;;205.20;2252.80;;;;;;5070516;28;20031;-58
2023/12/26 02:12:34;;;;;;;23.77;13.65;;;205.10;2252.80;;;;;;5070382;28;20036;-59
2023/12/26 02:15:01;;;;;;;29.52;14.88;;;205.10;2252.80;;;;;;5070222;28;20029;-59
2023/12/26 02:17:29;;;;;;;21.10;12.70;;;205.20;2252.80;;;;;;5070286;28;20031;-59
2023/12/26 02:19:54;;;;;;;13.77;8.80;;;205.20;2252.80;;;;;;5070524;28;20474;-59
2023/12/26 02:22:21;;;;;;;11.90;7.35;;;205.20;2252.80;;;;;;5070540;28;20024;-59
2023/12/26 02:24:47;;;;;;;16.10;9.68;;;205.20;2252.80;;;;;;5070384;28;20108;-59
2023/12/26 02:27:18;;;;;;;17.40;10.80;;;205.30;2252.80;;;;;;5070098;28;20021;-58
2023/12/26 02:29:47;;;;;;;16.33;7.50;;;205.40;2252.80;;;;;;5070254;28;20036;-58
2023/12/26 02:32:16;;;;;;;10.30;4.85;;;205.60;2252.80;;;;;;5070128;28;20032;-58
2023/12/26 02:34:42;;;;;;;14.65;7.70;;;205.70;2252.80;;;;;;5069920;28;20032;-58
2023/12/26 02:37:07;;;;;;;8.35;6.57;;;230.40;2252.80;;;;;;5069796;28;20040;-58
2023/12/26 02:39:34;;;;;;;13.10;7.20;;;205.70;2252.80;;;;;;5069703;28;20053;-58
2023/12/26 02:42:00;;;;;;;24.42;16.00;;;205.60;2252.80;;;;;;5069955;28;20371;-58
2023/12/26 02:44:26;;;;;;;18.55;12.60;;;205.60;2252.80;;;;;;5070005;28;20028;-59
2023/12/26 02:46:51;;;;;;;19.30;12.35;;;205.70;2252.80;;;;;;5069896;28;20029;-58
2023/12/26 02:49:17;;;;;;;20.27;10.65;;;205.60;2252.80;;;;;;5069430;28;20028;-59
2023/12/26 02:51:43;;;;;;;14.25;10.43;;;205.50;2252.80;;;;;;5052517;28;20020;-59
2023/12/26 02:54:09;;;;;;;18.98;9.48;;;205.40;2252.80;;;;;;5069609;28;20028;-59
2023/12/26 02:56:34;;;;;;;18.80;10.90;;;205.40;2252.80;;;;;;5069534;28;20385;-58
2023/12/26 02:59:00;;;;;;;17.63;11.43;;;205.30;2252.80;;;;;;5069422;28;20070;-70
2023/12/26 03:01:26;;;;;;;20.10;9.35;;;205.20;2252.80;;;;;;5069843;28;20093;-59
2023/12/26 03:03:51;;;;;;;19.05;12.27;;;205.20;2252.80;;;;;;5069398;28;20024;-63
2023/12/26 03:06:17;;;;;;;27.75;15.85;;;205.30;2252.80;;;;;;5069675;28;20056;-59
2023/12/26 03:08:43;;;;;;;31.00;17.55;;;205.30;2252.80;;;;;;5069589;28;20036;-59
2023/12/26 03:11:09;;;;;;;26.55;15.82;;;205.20;2252.80;;;;;;5069384;28;20032;-59
2023/12/26 03:13:34;;;;;;;22.92;12.48;;;205.30;2252.80;;;;;;5069582;28;20036;-59
2023/12/26 03:16:00;;;;;;;16.45;10.85;;;205.20;2252.80;;;;;;5076657;28;20040;-59
2023/12/26 03:18:26;;;;;;;18.38;10.07;;;205.20;2252.80;;;;;;5075248;28;20143;-59
2023/12/26 03:20:51;;;;;;;17.00;9.95;;;205.30;2252.80;;;;;;5069453;28;20074;-71
2023/12/26 03:23:17;;;;;;;13.52;7.93;;;205.20;2252.80;;;;;;5069387;28;20027;-59
2023/12/26 03:25:43;;;;;;;14.20;7.93;;;205.10;2252.80;;;;;;5069401;28;20044;-58
2023/12/26 03:28:09;;;;;;;16.55;7.32;;;205.10;2252.80;;;;;;5069070;28;20025;-57
2023/12/26 03:30:35;;;;;;;13.70;8.38;;;205.10;2252.80;;;;;;5069442;28;20028;-71
2023/12/26 03:33:00;;;;;;;11.98;6.22;;;205.10;2252.80;;;;;;5069418;28;20021;-57
2023/12/26 03:35:26;;;;;;;12.73;6.95;;;205.10;2252.80;;;;;;5069275;28;20451;-59
2023/12/26 03:37:52;;;;;;;10.48;5.80;;;205.00;2252.80;;;;;;5068886;28;20032;-71
2023/12/26 03:40:18;;;;;;;16.17;8.85;;;205.00;2252.80;;;;;;5069127;28;20115;-59
2023/12/26 03:42:45;;;;;;;11.25;6.72;;;205.00;2252.80;;;;;;5068891;28;20062;-58
2023/12/26 03:45:11;;;;;;;13.30;6.78;;;204.90;2252.80;;;;;;5070268;28;20391;-58
2023/12/26 03:47:37;;;;;;;9.57;6.32;;;204.90;2252.80;;;;;;5073236;28;20054;-59
2023/12/26 03:50:06;;;;;;;14.32;6.85;;;204.80;2252.80;;;;;;5073586;28;20520;-58
2023/12/26 03:52:32;;;;;;;14.85;8.68;;;204.90;2252.80;;;;;;5073402;28;20194;-58
2023/12/26 03:54:57;;;;;;;14.10;8.50;;;204.90;2252.80;;;;;;5073180;28;20443;-59
2023/12/26 03:57:23;;;;;;;15.55;7.15;;;204.90;2252.80;;;;;;5072914;28;20040;-59
2023/12/26 03:59:49;;;;;;;15.35;8.65;;;204.90;2252.80;;;;;;5073109;28;20017;-58
2023/12/26 04:02:15;;;;;;;18.40;9.30;;;204.90;2252.80;;;;;;5073193;28;20020;-58
2023/12/26 04:04:41;;;;;;;13.90;8.73;;;204.80;2252.80;;;;;;5072958;28;20483;-58
2023/12/26 04:07:07;;;;;;;14.70;7.53;;;204.80;2252.80;;;;;;5072986;28;20051;-58
2023/12/26 04:09:32;;;;;;;16.58;7.10;;;204.80;2252.80;;;;;;5073017;28;20028;-58
2023/12/26 04:11:58;;;;;;;13.18;7.60;;;180.10;2252.80;;;;;;5072703;28;20036;-59
2023/12/26 04:14:24;;;;;;;18.50;10.90;;;204.80;2252.80;;;;;;5072983;28;20382;-59
2023/12/26 04:16:50;;;;;;;20.45;11.95;;;204.80;2252.80;;;;;;5072850;28;20028;-72
2023/12/26 04:19:16;;;;;;;20.67;12.65;;;180.10;2252.80;;;;;;5072801;28;20032;-58
2023/12/26 04:21:42;;;;;;;15.20;9.90;;;204.80;2252.80;;;;;;5072366;28;20032;-58
2023/12/26 04:24:07;;;;;;;18.67;13.32;;;180.10;2252.80;;;;;;5072474;28;20162;-59
2023/12/26 04:26:36;;;;;;;25.13;16.88;;;180.10;2252.80;;;;;;5072566;28;20028;-58
2023/12/26 04:29:02;;;;;;;21.83;15.27;;;180.10;2252.80;;;;;;5072432;28;20095;-58
2023/12/26 04:31:28;;;;;;;21.10;12.48;;;180.10;2252.80;;;;;;5072383;28;20158;-59
2023/12/26 04:33:53;;;;;;;22.27;12.45;;;180.10;2252.80;;;;;;5072416;28;20099;-59
2023/12/26 04:36:19;;;;;;;15.70;10.90;;;180.10;2252.80;;;;;;5072472;28;20028;-58
2023/12/26 04:38:45;;;;;;;23.05;13.00;;;180.10;2252.80;;;;;;5072087;28;20033;-58
2023/12/26 04:41:11;;;;;;;21.35;11.90;;;180.10;2252.80;;;;;;5072131;28;20059;-59
2023/12/26 04:43:37;;;;;;;17.77;10.52;;;180.10;2252.80;;;;;;5072345;28;20087;-58
2023/12/26 04:46:03;;;;;;;13.95;8.88;;;180.00;2252.80;;;;;;5072188;28;20033;-58
2023/12/26 04:48:29;;;;;;;18.70;9.27;;;180.00;2252.80;;;;;;5071921;28;20023;-58
2023/12/26 04:50:55;;;;;;;18.30;8.77;;;179.90;2252.80;;;;;;5072106;28;20029;-65
2023/12/26 04:53:20;;;;;;;14.35;8.02;;;180.00;2252.80;;;;;;5072327;28;20024;-57
2023/12/26 04:55:46;;;;;;;10.80;6.95;;;180.00;2252.80;;;;;;5071897;28;20086;-58
2023/12/26 04:58:12;;;;;;;13.93;6.40;;;180.00;2252.80;;;;;;5072327;28;20028;-58
2023/12/26 05:00:38;;;;;;;10.07;5.95;;;180.00;2252.80;;;;;;5071648;28;20096;-58
2023/12/26 05:03:04;;;;;;;10.55;6.63;;;179.90;2252.80;;;;;;5072080;28;20108;-58
2023/12/26 05:05:30;;;;;;;10.93;4.70;;;179.80;2252.80;;;;;;5071751;28;20111;-58
2023/12/26 05:07:56;;;;;;;9.98;5.70;;;179.90;2252.80;;;;;;5071853;28;20071;-59
2023/12/26 05:10:21;;;;;;;8.60;5.82;;;179.90;2252.80;;;;;;5071476;28;20033;-65
2023/12/26 05:12:47;;;;;;;13.85;7.28;;;179.90;2252.80;;;;;;5071343;28;20069;-58
2023/12/26 05:15:13;;;;;;;11.60;8.32;;;179.90;2252.80;;;;;;5071705;28;20124;-67
2023/12/26 05:17:39;;;;;;;16.63;9.20;;;179.90;2252.80;;;;;;5071427;28;20035;-58
2023/12/26 05:20:05;;;;;;;14.75;7.72;;;179.80;2252.80;;;;;;5071498;28;20025;-58
2023/12/26 05:22:31;;;;;;;12.02;8.15;;;179.80;2252.80;;;;;;5071484;28;20028;-58
2023/12/26 05:24:57;;;;;;;14.57;8.15;;;179.80;2252.80;;;;;;5071467;28;20021;-58
2023/12/26 05:27:23;;;;;;;9.35;5.68;;;179.80;2252.80;;;;;;5072013;28;20377;-57
2023/12/26 05:29:49;;;;;;;11.68;6.80;;;179.80;2252.80;;;;;;5071269;28;20029;-71
2023/12/26 05:32:14;;;;;;;13.65;6.22;;;179.80;2252.80;;;;;;5071662;28;20031;-59
2023/12/26 05:34:45;;;;;;;16.42;8.48;;;179.70;2252.80;;;;;;5071221;28;20025;-58
2023/12/26 05:37:11;;;;;;;10.98;6.38;;;179.60;2252.80;;;;;;5071102;28;20040;-58
2023/12/26 05:39:36;;;;;;;12.35;6.75;;;179.60;2252.80;;;;;;5071103;28;20529;-58
2023/12/26 05:42:03;;;;;;;9.88;5.90;;;179.60;2252.80;;;;;;5077907;28;20042;-58
2023/12/26 05:44:28;;;;;;;15.80;6.93;;;179.60;2252.80;;;;;;5071255;28;20103;-58
2023/12/26 05:46:54;;;;;;;8.40;5.95;;;179.60;2252.80;;;;;;5071416;28;20113;-58
2023/12/26 05:49:20;;;;;;;10.95;5.32;;;179.60;2252.80;;;;;;5071189;28;20079;-58
2023/12/26 05:51:46;;;;;;;8.95;5.25;;;179.70;2252.80;;;;;;5070902;28;20441;-58
2023/12/26 05:54:11;;;;;;;11.00;6.68;;;179.70;2252.80;;;;;;5070674;28;20137;-58
2023/12/26 05:56:37;;;;;;;17.17;10.10;;;179.70;2252.80;;;;;;5070588;28;20032;-58
2023/12/26 05:59:03;;;;;;;35.45;21.10;;;179.70;2252.80;;;;;;5057519;28;20514;-58
2023/12/26 06:01:29;;;;;;;31.40;20.60;;;179.70;2252.80;;;;;;5075722;28;20028;-58
2023/12/26 06:03:55;;;;;;;27.63;14.77;;;179.70;2252.80;;;;;;5082289;28;20074;-58
2023/12/26 06:06:21;;;;;;;34.63;22.02;;;179.70;2252.80;;;;;;5071052;28;20056;-59
2023/12/26 06:08:47;;;;;;;28.02;16.77;;;179.70;2252.80;;;;;;5069930;28;20036;-58
2023/12/26 06:11:12;;;;;;;18.75;12.15;;;179.80;2252.80;;;;;;5070568;28;20044;-58
2023/12/26 06:13:38;;;;;;;15.63;8.70;;;179.70;2252.80;;;;;;5070255;28;20024;-59
2023/12/26 06:16:04;;;;;;;13.18;8.68;;;179.80;2252.80;;;;;;5070413;28;20033;-58
2023/12/26 06:18:30;;;;;;;14.82;8.98;;;179.50;2252.80;;;;;;5070100;28;20033;-59
2023/12/26 06:20:56;;;;;;;11.82;7.38;;;179.40;2252.80;;;;;;5070676;28;20025;-58
2023/12/26 06:23:22;;;;;;;12.90;8.40;;;179.40;2252.80;;;;;;5070302;28;20025;-59
2023/12/26 06:25:48;;;;;;;16.52;8.80;;;179.30;2252.80;;;;;;5070191;28;20023;-67
2023/12/26 06:28:13;;;;;;;14.23;7.03;;;179.40;2252.80;;;;;;5070319;28;20020;-71
2023/12/26 06:30:39;;;;;;;9.50;6.13;;;179.40;2252.80;;;;;;5070326;28;20091;-59
2023/12/26 06:33:05;;;;;;;11.65;8.63;;;179.50;2252.80;;;;;;5069964;28;20020;-59
2023/12/26 06:35:31;;;;;;;20.65;11.45;;;179.50;2252.80;;;;;;5070424;28;20043;-59
2023/12/26 06:37:56;;;;;;;10.95;7.78;;;179.40;2252.80;;;;;;5069836;28;20032;-59
2023/12/26 06:40:22;;;;;;;13.00;6.90;;;179.40;2252.80;;;;;;5069976;28;20040;-58
2023/12/26 06:42:48;;;;;;;17.80;9.02;;;179.40;2252.80;;;;;;5066418;28;20109;-57
2023/12/26 06:45:14;;;;;;;53.33;31.88;;;179.40;2252.80;;;;;;5082079;28;20036;-59
2023/12/26 06:47:42;;;;;;;274.08;152.45;;;179.50;2252.80;;;;;;5072967;28;20377;-59
2023/12/26 06:50:08;;;;;;;141.23;73.20;;;179.50;2252.80;;;;;;5071773;28;20391;-60
2023/12/26 06:52:35;;;;;;;47.03;25.90;;;179.50;2252.80;;;;;;5068155;28;20031;-58
2023/12/26 06:55:00;;;;;;;14.70;8.82;;;179.50;2252.80;;;;;;5071312;28;20486;-59
2023/12/26 06:57:26;;;;;;;36.75;21.15;;;179.40;2252.80;;;;;;5065825;28;20040;-59
2023/12/26 06:59:53;;;;;;;95.15;66.28;;;179.50;2252.80;;;;;;5080682;28;20529;-59
2023/12/26 07:02:19;;;;;;;143.75;88.18;;;179.60;2252.80;;;;;;5084363;28;20032;-60
2023/12/26 07:04:45;;;;;;;54.67;34.33;;;179.70;2252.80;;;;;;5057995;28;20075;-59
2023/12/26 07:07:11;;;;;;;37.30;20.48;;;179.70;2252.80;;;;;;5063837;28;20152;-59
2023/12/26 07:09:37;;;;;;;15.50;11.00;;;179.50;2252.80;;;;;;5069565;28;20055;-60
2023/12/26 07:12:03;;;;;;;16.60;7.65;;;179.70;2252.80;;;;;;5069465;28;20025;-60
2023/12/26 07:14:30;;;;;;;11.07;7.85;;;179.70;2252.80;;;;;;5069400;28;20660;-60
2023/12/26 07:16:56;;;;;;;10.60;7.55;;;179.80;2252.80;;;;;;5074393;28;20033;-60
2023/12/26 07:19:22;;;;;;;16.08;9.38;;;179.80;2252.80;;;;;;5069023;28;20021;-60
2023/12/26 07:21:48;;;;;;;21.83;12.82;;;179.90;2252.80;;;;;;5069194;28;20485;-62
2023/12/26 07:24:14;;;;;;;33.10;19.88;;;180.00;2252.80;;;;;;5069584;28;20032;-60
2023/12/26 07:26:40;;;;;;;25.55;17.85;;;180.00;2252.80;;;;;;5069140;28;20528;-65
2023/12/26 07:29:06;;;;;;;30.77;19.38;;;180.10;2252.80;;;;;;5076618;28;20025;-66
2023/12/26 07:31:32;;;;;;;16.30;9.63;;;204.90;2252.80;;;;;;5077572;28;20077;-63
2023/12/26 07:34:00;;;;;;;22.35;10.52;;;180.10;2252.80;;;;;;5074997;28;20030;-63
2023/12/26 07:36:26;;;;;;;18.42;9.55;;;180.10;2252.80;;;;;;5088452;28;20512;-63
2023/12/26 07:38:51;;;;;;;48.97;35.38;;;180.00;2252.80;;;;;;5081593;28;20124;-62
2023/12/26 07:41:17;;;;;;;51.92;34.42;;;180.10;2252.80;;;;;;5069210;28;20060;-61
2023/12/26 07:43:44;;;;;;;21.20;14.88;;;180.10;2252.80;;;;;;5055731;28;20035;-62
2023/12/26 07:46:10;;;;;;;27.50;17.08;;;180.10;2252.80;;;;;;5067862;28;20035;-65
2023/12/26 07:48:36;;;;;;;25.25;19.15;;;204.80;2252.80;;;;;;5065952;28;20035;-62
2023/12/26 07:51:01;;;;;;;21.88;14.18;;;204.80;2252.80;;;;;;5059203;28;20482;-66
2023/12/26 07:53:27;;;;;;;23.85;15.85;;;204.80;2252.80;;;;;;5068249;28;20032;-67
2023/12/26 07:55:53;;;;;;;21.30;12.75;;;204.80;2252.80;;;;;;5067046;28;20047;-66
2023/12/26 07:58:19;;;;;;;24.85;15.68;;;204.90;2252.80;;;;;;5074214;28;20454;-65
2023/12/26 08:00:44;;;;;;;18.48;11.30;;;204.90;2252.80;;;;;;5069238;28;20085;-65
2023/12/26 08:03:15;;;;;;;15.05;9.32;;;204.90;2252.80;;;;;;5068918;28;20352;-63
2023/12/26 08:05:42;;;;;;;17.55;10.23;;;204.90;2252.80;;;;;;5065430;28;20108;-62
2023/12/26 08:08:11;;;;;;;24.95;12.70;;;205.00;2252.80;;;;;;5082091;28;20036;-64
2023/12/26 08:10:37;;;;;;;34.70;17.48;;;205.00;2252.80;;;;;;5076942;28;20025;-64
2023/12/26 08:13:04;;;;;;;30.08;14.70;;;205.10;2252.80;;;;;;5063491;28;20395;-62
2023/12/26 08:15:30;;;;;;;33.28;18.83;;;205.30;2252.80;;;;;;5062533;28;20036;-66
2023/12/26 08:17:56;;;;;;;38.78;23.90;;;205.50;2252.80;;;;;;5069863;28;20028;-66
2023/12/26 08:20:23;;;;;;;68.75;30.63;;;205.60;2252.80;;;;;;5059142;28;20017;-63
2023/12/26 08:22:48;;;;;;;214.40;139.57;;;205.70;2252.80;;;;;;5063135;28;20036;-66
2023/12/26 08:25:14;;;;;;;229.15;94.00;;;230.60;2252.80;;;;;;5066078;28;20021;-65
2023/12/26 08:27:40;;;;;;;140.77;76.90;;;256.40;2252.80;;;;;;5064474;28;20028;-62
2023/12/26 08:30:08;;;;;;;186.10;75.20;;;256.90;2252.80;;;;;;5056762;28;20025;-66
2023/12/26 08:32:34;;;;;;;207.50;87.18;;;281.60;2278.40;;;;;;5072747;28;20024;-67
2023/12/26 08:35:00;;;;;;;62.78;24.25;;;281.70;2278.40;;;;;;5066582;28;20020;-63
2023/12/26 08:37:27;;;;;;;176.57;67.88;;;256.90;2252.80;;;;;;5081020;28;20039;-63
2023/12/26 08:39:53;;;;;;;127.28;60.75;;;256.70;2252.80;;;;;;5077517;28;20102;-63
2023/12/26 08:42:19;;;;;;;76.78;39.88;;;256.80;2252.80;;;;;;5072482;28;20351;-62
2023/12/26 08:44:45;;;;;;;79.88;37.97;;;307.30;2304.00;;;;;;5071891;28;20075;-63
2023/12/26 08:47:11;;;;;;;139.02;64.57;;;333.40;2329.60;;;;;;5071850;28;20025;-67
2023/12/26 08:49:36;;;;;;;84.43;41.20;;;384.00;2329.60;;;;;;5072292;28;20077;-66
2023/12/26 08:52:02;;;;;;;58.50;29.48;;;410.20;2150.40;;;;;;5072495;28;20064;-67
2023/12/26 08:54:28;;;;;;;40.55;24.98;;;435.40;2048.00;;;;;;5072199;28;20474;-63
2023/12/26 08:56:54;;;;;;;85.47;47.33;;;460.90;1996.80;;;;;;5071993;28;20037;-64
2023/12/26 08:59:20;;;;;;;125.80;75.15;;;486.50;1920.00;;;;;;5072026;28;20020;-64
2023/12/26 09:01:46;;;;;;;69.20;40.05;;;486.80;1843.20;;;;;;5072507;28;20029;-65
2023/12/26 09:04:12;;;;;;;36.05;22.90;;;512.10;1792.00;;;;;;5071556;28;20021;-66
2023/12/26 09:06:38;;;;;;;55.47;30.33;;;512.90;1740.80;;;;;;5071633;28;20142;-64
2023/12/26 09:09:04;;;;;;;98.25;50.10;;;512.90;1715.20;;;;;;5076336;28;20067;-66
2023/12/26 09:11:29;;;;;;;69.28;40.38;;;538.10;1715.20;;;;;;5080511;28;20120;-67
2023/12/26 09:13:55;;;;;;;53.75;33.75;;;563.30;1689.60;;;;;;5071938;28;20025;-64
2023/12/26 09:16:21;;;;;;;37.70;24.63;;;563.80;1638.40;;;;;;5071876;28;20382;-67
2023/12/26 09:18:47;;;;;;;62.97;37.42;;;589.00;1612.80;;;;;;5071533;28;20066;-64
2023/12/26 09:21:13;;;;;;;71.07;46.85;;;589.00;1587.20;;;;;;5071791;28;20024;-64
2023/12/26 09:23:39;;;;;;;76.70;49.78;;;563.70;1612.80;;;;;;5071702;28;20121;-67
2023/12/26 09:26:05;;;;;;;164.40;88.15;;;538.30;1638.40;;;;;;5071490;28;20486;-66
2023/12/26 09:28:31;;;;;;;146.93;71.18;;;512.90;1664.00;;;;;;5071208;28;20109;-63
2023/12/26 09:30:58;;;;;;;104.75;47.40;;;512.00;1715.20;;;;;;5071443;28;20025;-65
2023/12/26 09:33:24;;;;;;;100.70;50.95;;;486.60;1792.00;;;;;;5071197;28;20017;-63
2023/12/26 09:35:50;;;;;;;310.38;153.48;;;461.20;1843.20;;;;;;5071543;28;20028;-66
2023/12/26 09:38:16;;;;;;;318.13;188.07;;;435.80;1868.80;;;;;;5071040;28;20391;-66
2023/12/26 09:40:42;;;;;;;515.38;344.13;;;410.50;1945.60;;;;;;5071302;28;20028;-66
2023/12/26 09:43:08;;;;;;;91.40;59.67;;;409.80;1996.80;;;;;;5070013;28;20028;-63
2023/12/26 09:45:34;;;;;;;38.22;27.80;;;384.90;1996.80;;;;;;5071365;28;20017;-64
2023/12/26 09:48:00;;;;;;;121.55;64.22;;;384.60;2022.40;;;;;;5071026;28;20107;-67
2023/12/26 09:50:27;;;;;;;64.82;34.00;;;384.40;2048.00;;;;;;5071399;28;20103;-65
2023/12/26 09:52:58;;;;;;;67.55;34.33;;;384.20;2073.60;;;;;;5071100;28;20028;-63
2023/12/26 09:55:29;;;;;;;61.15;31.48;;;384.10;2099.20;;;;;;5071027;28;20029;-64
2023/12/26 09:57:57;;;;;;;23.40;14.55;;;384.20;2099.20;;;;;;5057884;28;20027;-65
2023/12/26 10:00:26;;;;;;;18.60;13.20;;;384.20;2099.20;;;;;;5071026;28;20032;-64
2023/12/26 10:02:52;;;;;;;22.35;12.15;;;384.20;2099.20;;;;;;5070442;28;20327;-66
2023/12/26 10:05:18;;;;;;;20.88;15.30;;;384.10;2099.20;;;;;;5070701;28;20055;-63
2023/12/26 10:07:44;;;;;;;19.95;11.57;;;384.30;2099.20;;;;;;5070572;28;20060;-63
2023/12/26 10:10:20;;;;;;;19.88;10.43;;;384.40;2073.60;;;;;;5070854;28;20051;-64
2023/12/26 10:12:50;;;;;;;17.67;11.40;;;384.40;2073.60;;;;;;5070357;28;20031;-66
2023/12/26 10:15:17;;;;;;;14.23;9.05;;;384.60;2073.60;;;;;;5070488;28;20375;-66
2023/12/26 10:17:43;;;;;;;12.00;7.45;;;384.60;2099.20;;;;;;5070141;28;20033;-67
2023/12/26 10:20:14;;;;;;;21.67;13.98;;;384.60;2099.20;;;;;;5070295;28;20443;-63
2023/12/26 10:22:44;;;;;;;19.00;12.75;;;384.60;2099.20;;;;;;5070434;28;20490;-65
2023/12/26 10:25:14;;;;;;;14.95;8.50;;;384.60;2099.20;;;;;;5070178;28;20475;-63
2023/12/26 10:27:40;;;;;;;17.08;10.82;;;384.60;2099.20;;;;;;5070179;28;20382;-65
2023/12/26 10:30:07;;;;;;;16.90;10.23;;;384.70;2099.20;;;;;;5070090;28;20024;-62
2023/12/26 10:32:33;;;;;;;13.82;9.00;;;384.80;2099.20;;;;;;5070253;28;20466;-66
2023/12/26 10:35:15;;;;;;;18.77;10.63;;;384.90;2073.60;;;;;;5069898;28;20417;-64
2023/12/26 10:37:41;;;;;;;22.80;16.63;;;384.90;2099.20;;;;;;5070036;28;20169;-66
2023/12/26 10:40:08;;;;;;;36.28;25.10;;;384.90;2073.60;;;;;;5074812;28;20568;-66
2023/12/26 10:42:37;;;;;;;88.13;61.53;;;384.90;2099.20;;;;;;5071304;28;20017;-64
2023/12/26 10:45:06;;;;;;;56.85;34.88;;;384.80;2176.00;;;;;;5070106;28;20123;-66
2023/12/26 10:47:33;;;;;;;48.35;30.38;;;384.90;2099.20;;;;;;5069463;28;20091;-62
2023/12/26 10:50:05;;;;;;;66.80;41.72;;;384.90;2099.20;;;;;;5069854;28;20651;-62
2023/12/26 10:52:31;;;;;;;72.20;45.47;;;409.60;2150.40;;;;;;5069790;28;20024;-66
2023/12/26 10:55:00;;;;;;;87.05;56.22;;;409.70;2124.80;;;;;;5069748;28;20115;-66
2023/12/26 10:57:31;;;;;;;46.00;32.63;;;409.70;2124.80;;;;;;5069827;28;20086;-66
2023/12/26 11:00:49;;;;;;;108.35;81.40;;;409.80;2099.20;;;;;;5069534;28;20527;-67
2023/12/26 13:51:35;;;;;;;47.78;28.98;;;409.90;2150.40;;;;;;5077506;28;20081;-62
2023/12/26 13:54:01;;;;;;;41.60;29.00;;;409.70;2176.00;;;;;;5088284;28;20027;-65
2023/12/26 13:56:27;;;;;;;47.55;32.97;;;409.70;2201.60;;;;;;5063360;28;20552;-64
2023/12/26 13:58:54;;;;;;;28.05;17.92;;;409.70;2201.60;;;;;;5081784;28;20637;-63
2023/12/26 14:01:20;;;;;;;38.85;26.38;;;409.70;2201.60;;;;;;5073719;28;20063;-65
2023/12/26 14:03:50;;;;;;;43.90;29.73;;;409.70;2227.20;;;;;;5070425;28;20299;-67
2023/12/26 14:06:19;;;;;;;45.65;27.60;;;409.60;2227.20;;;;;;5062378;28;20055;-63
2023/12/26 14:08:49;;;;;;;50.63;30.85;;;384.90;2201.60;;;;;;5069685;28;20776;-66
2023/12/26 14:11:18;;;;;;;79.20;53.00;;;384.90;2201.60;;;;;;5070319;28;20039;-66
2023/12/26 14:13:44;;;;;;;72.40;49.90;;;384.70;2227.20;;;;;;5069793;28;20021;-66
2023/12/26 14:16:10;;;;;;;68.75;42.95;;;384.70;2227.20;;;;;;5069668;28;20037;-63
2023/12/26 14:18:36;;;;;;;65.22;38.03;;;384.60;2252.80;;;;;;5069888;28;20024;-63
2023/12/26 14:21:03;;;;;;;85.65;58.72;;;384.50;2252.80;;;;;;5070098;28;20493;-65
2023/12/26 14:23:29;;;;;;;93.50;55.85;;;384.40;2278.40;;;;;;5070076;28;20099;-66
2023/12/26 14:25:55;;;;;;;76.03;47.95;;;384.30;2278.40;;;;;;5069682;28;20100;-63
2023/12/26 14:28:21;;;;;;;105.18;63.47;;;384.10;2304.00;;;;;;5069606;28;20056;-63
2023/12/26 14:30:47;;;;;;;67.65;44.05;;;384.10;2304.00;;;;;;5069631;28;20017;-63
2023/12/26 14:33:19;;;;;;;69.13;43.05;;;384.10;2304.00;;;;;;5070007;28;20165;-63
2023/12/26 14:35:49;;;;;;;89.15;53.17;;;384.00;2329.60;;;;;;5070044;28;20316;-63
2023/12/26 14:38:15;;;;;;;81.55;48.50;;;359.30;2329.60;;;;;;5069362;28;20056;-65
2023/12/26 14:40:42;;;;;;;131.68;92.22;;;359.30;2329.60;;;;;;5069788;28;20040;-63
2023/12/26 14:43:08;;;;;;;93.60;60.47;;;359.10;2329.60;;;;;;5077567;28;20077;-64
2023/12/26 14:45:34;;;;;;;115.22;79.38;;;359.10;2329.60;;;;;;5066479;28;20025;-64